createdAt,value
2023-03-22T00:00:16.821Z,13.16
2023-03-22T00:03:06.264Z,13.16
2023-03-22T00:05:35.266Z,13.15
2023-03-22T00:08:06.548Z,13.14
2023-03-22T00:10:38.170Z,13.11
2023-03-22T00:13:09.440Z,13.11
2023-03-22T00:15:39.048Z,13.13
2023-03-22T00:18:08.017Z,13.13
2023-03-22T00:20:38.981Z,13.14
2023-03-22T00:23:08.588Z,13.17
2023-03-22T00:25:37.464Z,13.17
2023-03-22T00:28:06.874Z,13.17
2023-03-22T00:30:35.845Z,13.16
2023-03-22T00:33:05.184Z,13.12
2023-03-22T00:35:34.678Z,13.10
2023-03-22T00:38:05.850Z,13.03
2023-03-22T00:40:34.814Z,12.98
2023-03-22T00:43:03.901Z,13.00
2023-03-22T00:45:35.674Z,12.98
2023-03-22T00:48:04.691Z,12.90
2023-03-22T00:50:33.594Z,12.84
2023-03-22T00:53:02.700Z,12.79
2023-03-22T00:55:32.057Z,12.78
2023-03-22T00:58:01.170Z,12.73
2023-03-22T01:00:31.065Z,12.71
2023-03-22T01:03:03.558Z,12.71
2023-03-22T01:05:34.480Z,12.73
2023-03-22T01:08:07.888Z,12.67
2023-03-22T01:10:37.791Z,12.66
2023-03-22T01:13:08.161Z,12.62
2023-03-22T01:15:37.234Z,12.58
2023-03-22T01:18:07.022Z,12.58
2023-03-22T01:20:36.636Z,12.55
2023-03-22T01:23:05.670Z,12.53
2023-03-22T01:25:34.730Z,12.46
2023-03-22T01:28:06.138Z,12.42
2023-03-22T01:30:35.262Z,12.38
2023-03-22T01:33:05.166Z,12.37
2023-03-22T01:35:34.130Z,12.34
2023-03-22T01:38:04.051Z,12.31
2023-03-22T01:40:33.881Z,12.29
2023-03-22T01:43:03.416Z,12.28
2023-03-22T01:45:39.913Z,12.29
2023-03-22T01:48:26.154Z,12.26
2023-03-22T01:50:59.269Z,12.27
2023-03-22T01:53:28.555Z,12.28
2023-03-22T01:55:58.799Z,12.29
2023-03-22T01:58:28.276Z,12.33
2023-03-22T02:00:58.323Z,12.35
2023-03-22T02:03:35.899Z,12.34
2023-03-22T02:06:05.320Z,12.31
2023-03-22T02:08:34.194Z,12.31
2023-03-22T02:11:04.713Z,12.33
2023-03-22T02:13:47.396Z,12.35
2023-03-22T02:16:31.003Z,12.39
2023-03-22T02:19:28.652Z,12.43
2023-03-22T02:22:41.141Z,12.48
2023-03-22T02:25:33.300Z,12.50
2023-03-22T02:28:13.626Z,12.48
2023-03-22T02:31:16.828Z,12.49
2023-03-22T02:34:24.843Z,12.50
2023-03-22T02:37:35.144Z,12.49
2023-03-22T02:40:14.206Z,12.48
2023-03-22T02:42:55.678Z,12.42
2023-03-22T02:45:33.230Z,12.39
2023-03-22T02:48:08.611Z,12.33
2023-03-22T02:50:43.281Z,12.30
2023-03-22T02:53:18.725Z,12.25
2023-03-22T02:55:52.359Z,12.20
2023-03-22T02:58:25.915Z,12.17
2023-03-22T03:00:59.761Z,12.11
2023-03-22T03:03:31.498Z,12.03
2023-03-22T03:06:05.507Z,11.96
2023-03-22T03:08:36.177Z,11.87
2023-03-22T03:11:05.542Z,11.81
2023-03-22T03:13:34.433Z,11.79
2023-03-22T03:16:07.302Z,11.76
2023-03-22T03:18:44.722Z,11.74
2023-03-22T03:21:32.078Z,11.70
2023-03-22T03:24:12.351Z,11.67
2023-03-22T03:26:49.042Z,11.67
2023-03-22T03:29:25.987Z,11.65
2023-03-22T03:32:01.810Z,11.59
2023-03-22T03:34:32.860Z,11.56
2023-03-22T03:37:07.681Z,11.46
2023-03-22T03:39:42.195Z,11.40
2023-03-22T03:42:15.527Z,11.37
2023-03-22T03:44:45.386Z,11.32
2023-03-22T03:47:16.149Z,11.28
2023-03-22T03:49:45.609Z,11.27
2023-03-22T03:52:14.962Z,11.24
2023-03-22T03:54:45.171Z,11.22
2023-03-22T03:57:15.993Z,11.17
2023-03-22T03:59:44.865Z,11.15
2023-03-22T04:02:13.882Z,11.14
2023-03-22T04:04:43.087Z,11.11
2023-03-22T04:07:12.078Z,11.08
2023-03-22T04:09:42.176Z,11.04
2023-03-22T04:12:11.178Z,11.01
2023-03-22T04:14:41.103Z,11.01
2023-03-22T04:17:10.607Z,11.01
2023-03-22T04:19:39.429Z,11.04
2023-03-22T04:22:13.891Z,11.03
2023-03-22T04:24:43.528Z,10.98
2023-03-22T04:27:12.386Z,10.89
2023-03-22T04:29:47.956Z,10.82
2023-03-22T04:32:18.781Z,10.75
2023-03-22T04:34:47.688Z,10.74
2023-03-22T04:37:17.346Z,10.68
2023-03-22T04:39:46.848Z,10.74
2023-03-22T04:42:15.820Z,10.73
2023-03-22T04:44:44.805Z,10.68
2023-03-22T04:47:13.920Z,10.65
2023-03-22T04:49:42.891Z,10.66
2023-03-22T04:52:12.078Z,10.67
2023-03-22T04:54:41.292Z,10.67
2023-03-22T04:57:10.374Z,10.66
2023-03-22T04:59:39.465Z,10.59
2023-03-22T05:02:08.378Z,10.64
2023-03-22T05:04:37.360Z,10.69
2023-03-22T05:07:06.583Z,10.70
2023-03-22T05:09:35.571Z,10.72
2023-03-22T05:12:04.668Z,10.74
2023-03-22T05:14:33.681Z,10.75
2023-03-22T05:17:03.214Z,10.76
2023-03-22T05:19:32.641Z,10.76
2023-03-22T05:22:01.476Z,10.72
2023-03-22T05:24:31.384Z,10.71
2023-03-22T05:27:00.789Z,10.73
2023-03-22T05:29:36.105Z,10.73
2023-03-22T05:32:05.412Z,10.73
2023-03-22T05:34:35.358Z,10.74
2023-03-22T05:37:04.544Z,10.78
2023-03-22T05:39:33.778Z,10.82
2023-03-22T05:42:02.833Z,10.83
2023-03-22T05:44:31.887Z,10.79
2023-03-22T05:47:00.983Z,10.77
2023-03-22T05:49:30.594Z,10.81
2023-03-22T05:51:59.435Z,10.86
2023-03-22T05:54:28.371Z,10.86
2023-03-22T05:56:57.386Z,10.88
2023-03-22T05:59:26.265Z,10.89
2023-03-22T06:01:55.197Z,10.92
2023-03-22T06:04:24.274Z,10.96
2023-03-22T06:06:53.445Z,10.95
2023-03-22T06:09:22.393Z,10.96
2023-03-22T06:11:51.407Z,10.97
2023-03-22T06:14:20.569Z,10.97
2023-03-22T06:16:49.585Z,10.99
2023-03-22T06:19:18.755Z,11.02
2023-03-22T06:21:47.725Z,11.03
2023-03-22T06:24:16.677Z,11.04
2023-03-22T06:26:45.765Z,11.05
2023-03-22T06:29:14.763Z,10.99
2023-03-22T06:31:43.785Z,10.96
2023-03-22T06:34:12.835Z,10.92
2023-03-22T06:36:41.823Z,10.86
2023-03-22T06:39:10.805Z,10.83
2023-03-22T06:41:39.915Z,10.79
2023-03-22T06:44:09.015Z,10.72
2023-03-22T06:46:38.076Z,10.65
2023-03-22T06:49:07.426Z,10.57
2023-03-22T06:51:36.646Z,10.54
2023-03-22T06:54:06.014Z,10.54
2023-03-22T06:56:34.951Z,10.60
2023-03-22T06:59:03.960Z,10.62
2023-03-22T07:01:33.141Z,10.63
2023-03-22T07:04:02.280Z,10.63
2023-03-22T07:06:32.124Z,10.65
2023-03-22T07:09:01.643Z,10.63
2023-03-22T07:11:30.565Z,10.56
2023-03-22T07:13:59.441Z,10.57
2023-03-22T07:16:28.545Z,10.62
2023-03-22T07:18:57.709Z,10.65
2023-03-22T07:21:26.901Z,10.62
2023-03-22T07:23:56.015Z,10.59
2023-03-22T07:26:25.807Z,10.60
2023-03-22T07:28:54.734Z,10.63
2023-03-22T07:31:23.748Z,10.64
2023-03-22T07:33:52.802Z,10.66
2023-03-22T07:36:23.337Z,10.69
2023-03-22T07:38:52.457Z,10.70
2023-03-22T07:41:23.421Z,10.70
2023-03-22T07:43:58.278Z,10.69
2023-03-22T07:46:31.387Z,10.71
2023-03-22T07:49:00.756Z,10.74
2023-03-22T07:51:29.883Z,10.75
2023-03-22T07:53:58.898Z,10.77
2023-03-22T07:56:28.149Z,10.78
2023-03-22T07:58:57.068Z,10.81
2023-03-22T08:01:26.332Z,10.84
2023-03-22T08:03:55.386Z,10.92
2023-03-22T08:06:24.563Z,10.97
2023-03-22T08:08:53.773Z,10.95
2023-03-22T08:11:22.826Z,10.94
2023-03-22T08:13:51.768Z,10.92
2023-03-22T08:16:20.734Z,10.85
2023-03-22T08:18:49.982Z,10.84
2023-03-22T08:21:18.985Z,10.86
2023-03-22T08:23:49.514Z,10.89
2023-03-22T08:26:18.711Z,10.90
2023-03-22T08:28:47.781Z,10.97
2023-03-22T08:31:18.002Z,10.99
2023-03-22T08:33:46.977Z,11.02
2023-03-22T08:36:18.221Z,11.06
2023-03-22T08:38:47.160Z,11.07
2023-03-22T08:41:16.363Z,11.03
2023-03-22T08:43:45.257Z,10.98
2023-03-22T08:46:14.379Z,10.97
2023-03-22T08:48:49.869Z,10.97
2023-03-22T08:51:20.099Z,10.98
2023-03-22T08:53:49.585Z,10.99
2023-03-22T08:56:19.602Z,10.96
2023-03-22T08:58:48.798Z,10.97
2023-03-22T09:01:20.471Z,10.97
2023-03-22T09:03:49.565Z,10.94
2023-03-22T09:06:18.427Z,10.96
2023-03-22T09:08:51.534Z,10.96
2023-03-22T09:11:21.014Z,10.92
2023-03-22T09:13:50.814Z,10.92
2023-03-22T09:16:19.852Z,10.92
2023-03-22T09:18:48.848Z,10.94
2023-03-22T09:21:17.958Z,10.99
2023-03-22T09:23:47.310Z,11.00
2023-03-22T09:26:16.543Z,10.99
2023-03-22T09:28:46.253Z,11.00
2023-03-22T09:31:15.656Z,11.05
2023-03-22T09:33:44.668Z,11.10
2023-03-22T09:36:13.798Z,11.15
2023-03-22T09:38:42.768Z,11.17
2023-03-22T09:41:17.295Z,11.20
2023-03-22T09:43:51.496Z,11.23
2023-03-22T09:46:29.215Z,11.25
2023-03-22T09:49:00.216Z,11.28
2023-03-22T09:51:38.629Z,11.33
2023-03-22T09:54:14.243Z,11.35
2023-03-22T09:56:44.755Z,11.33
2023-03-22T09:59:19.434Z,11.30
2023-03-22T10:01:56.518Z,11.29
2023-03-22T10:04:41.106Z,11.29
2023-03-22T10:07:19.334Z,11.32
2023-03-22T10:09:55.392Z,11.34
2023-03-22T10:12:29.151Z,11.35
2023-03-22T10:15:06.718Z,11.38
2023-03-22T10:17:37.839Z,11.38
2023-03-22T10:20:17.915Z,11.38
2023-03-22T10:22:51.582Z,11.41
2023-03-22T10:25:26.321Z,11.44
2023-03-22T10:27:57.231Z,11.44
2023-03-22T10:30:30.632Z,11.45
2023-03-22T10:33:02.273Z,11.44
2023-03-22T10:35:31.984Z,11.42
2023-03-22T10:38:05.892Z,11.41
2023-03-22T10:40:36.364Z,11.47
2023-03-22T10:43:14.433Z,11.52
2023-03-22T10:45:44.366Z,11.57
2023-03-22T10:48:22.766Z,11.64
2023-03-22T10:50:53.502Z,11.71
2023-03-22T10:53:29.674Z,11.78
2023-03-22T10:55:59.083Z,11.81
2023-03-22T10:58:31.917Z,11.83
2023-03-22T11:01:05.959Z,11.87
2023-03-22T11:03:39.794Z,11.92
2023-03-22T11:06:11.846Z,11.96
2023-03-22T11:08:44.405Z,11.99
2023-03-22T11:11:20.551Z,12.00
2023-03-22T11:14:01.337Z,12.04
2023-03-22T11:16:32.107Z,12.17
2023-03-22T11:19:03.232Z,12.24
2023-03-22T11:21:33.825Z,12.21
2023-03-22T11:24:06.981Z,12.19
2023-03-22T11:26:40.760Z,12.22
2023-03-22T11:29:17.388Z,12.29
2023-03-22T11:31:56.542Z,12.34
2023-03-22T11:34:28.272Z,12.36
2023-03-22T11:37:00.940Z,12.35
2023-03-22T11:39:30.486Z,12.35
2023-03-22T11:42:03.135Z,12.38
2023-03-22T11:44:37.280Z,12.44
2023-03-22T11:47:12.386Z,12.48
2023-03-22T11:49:47.836Z,12.54
2023-03-22T11:52:19.737Z,12.61
2023-03-22T11:54:49.413Z,12.67
2023-03-22T11:57:22.705Z,12.72
2023-03-22T11:59:59.264Z,12.77
2023-03-22T12:02:31.933Z,12.78
2023-03-22T12:05:08.628Z,12.74
2023-03-22T12:07:41.085Z,12.73
2023-03-22T12:10:17.002Z,12.74
2023-03-22T12:12:51.496Z,12.76
2023-03-22T12:15:23.350Z,12.82
2023-03-22T12:17:58.510Z,12.87
2023-03-22T12:20:38.049Z,12.93
2023-03-22T12:23:15.376Z,12.99
2023-03-22T12:25:50.693Z,13.04
2023-03-22T12:28:23.160Z,13.10
2023-03-22T12:30:55.615Z,13.19
2023-03-22T12:33:27.406Z,13.26
2023-03-22T12:36:01.133Z,13.31
2023-03-22T12:38:35.444Z,13.31
2023-03-22T12:41:09.269Z,13.28
2023-03-22T12:43:46.753Z,13.29
2023-03-22T12:46:21.047Z,13.31
2023-03-22T12:48:53.753Z,13.30
2023-03-22T12:51:22.846Z,13.22
2023-03-22T12:53:56.222Z,13.17
2023-03-22T12:56:29.743Z,13.19
2023-03-22T12:59:02.874Z,13.21
2023-03-22T13:01:37.737Z,13.20
2023-03-22T13:04:31.155Z,13.21
2023-03-22T13:07:11.921Z,13.19
2023-03-22T13:09:43.627Z,13.17
2023-03-22T13:12:33.437Z,13.18
2023-03-22T13:15:19.568Z,13.17
2023-03-22T13:17:49.879Z,13.17
2023-03-22T13:20:27.302Z,13.11
2023-03-22T13:23:26.866Z,12.97
2023-03-22T13:26:05.537Z,12.86
2023-03-22T13:28:36.835Z,12.84
2023-03-22T13:31:06.741Z,12.88
2023-03-22T13:33:37.078Z,12.93
2023-03-22T13:36:23.031Z,12.97
2023-03-22T13:38:57.370Z,12.95
2023-03-22T13:41:31.074Z,12.91
2023-03-22T13:44:02.181Z,12.86
2023-03-22T13:46:46.836Z,12.81
2023-03-22T13:49:42.540Z,12.79
2023-03-22T13:52:25.799Z,12.80
2023-03-22T13:54:57.366Z,12.78
2023-03-22T13:57:48.688Z,12.80
2023-03-22T14:00:44.072Z,12.83
2023-03-22T14:03:20.376Z,12.83
2023-03-22T14:05:56.653Z,12.84
2023-03-22T14:08:30.144Z,12.83
2023-03-22T14:11:07.705Z,12.83
2023-03-22T14:13:42.946Z,12.83
2023-03-22T14:16:18.194Z,12.82
2023-03-22T14:18:49.389Z,12.83
2023-03-22T14:21:23.413Z,12.80
